sensor_id;sensor_type;location;lat;lon;timestamp;temperature;humidity
20288;DHT22;10303;51.960;8.372;2023-07-29T00:01:20;23.30;99.90
20288;DHT22;10303;51.960;8.372;2023-07-29T00:03:46;23.30;99.90
20288;DHT22;10303;51.960;8.372;2023-07-29T00:06:12;23.30;99.90
20288;DHT22;10303;51.960;8.372;2023-07-29T00:08:38;23.30;99.90
20288;DHT22;10303;51.960;8.372;2023-07-29T00:11:04;23.30;99.90
20288;DHT22;10303;51.960;8.372;2023-07-29T00:13:30;23.30;99.90
20288;DHT22;10303;51.960;8.372;2023-07-29T00:15:55;23.30;99.90
20288;DHT22;10303;51.960;8.372;2023-07-29T00:18:22;23.30;99.90
20288;DHT22;10303;51.960;8.372;2023-07-29T00:20:49;23.30;99.90
20288;DHT22;10303;51.960;8.372;2023-07-29T00:23:17;23.30;99.90
20288;DHT22;10303;51.960;8.372;2023-07-29T00:25:47;23.30;99.90
20288;DHT22;10303;51.960;8.372;2023-07-29T00:28:13;23.30;99.90
20288;DHT22;10303;51.960;8.372;2023-07-29T00:30:39;23.30;99.90
20288;DHT22;10303;51.960;8.372;2023-07-29T00:33:05;23.30;99.90
20288;DHT22;10303;51.960;8.372;2023-07-29T00:35:30;23.30;99.90
20288;DHT22;10303;51.960;8.372;2023-07-29T00:37:59;23.30;99.90
20288;DHT22;10303;51.960;8.372;2023-07-29T00:40:28;23.30;99.90
20288;DHT22;10303;51.960;8.372;2023-07-29T00:42:54;23.30;99.90
20288;DHT22;10303;51.960;8.372;2023-07-29T00:45:20;23.30;99.90
20288;DHT22;10303;51.960;8.372;2023-07-29T00:47:47;23.30;99.90
20288;DHT22;10303;51.960;8.372;2023-07-29T00:50:14;23.30;99.90
20288;DHT22;10303;51.960;8.372;2023-07-29T00:52:41;23.30;99.90
20288;DHT22;10303;51.960;8.372;2023-07-29T00:55:07;23.30;99.90
20288;DHT22;10303;51.960;8.372;2023-07-29T00:57:35;23.40;99.90
20288;DHT22;10303;51.960;8.372;2023-07-29T01:00:02;23.30;99.90
20288;DHT22;10303;51.960;8.372;2023-07-29T01:02:30;23.30;99.90
20288;DHT22;10303;51.960;8.372;2023-07-29T01:04:58;23.30;99.90
20288;DHT22;10303;51.960;8.372;2023-07-29T01:07:33;23.30;99.90
20288;DHT22;10303;51.960;8.372;2023-07-29T01:13:33;23.30;99.90
20288;DHT22;10303;51.960;8.372;2023-07-29T01:16:21;23.30;99.90
20288;DHT22;10303;51.960;8.372;2023-07-29T01:18:58;23.30;99.90
20288;DHT22;10303;51.960;8.372;2023-07-29T01:21:30;23.30;99.90
20288;DHT22;10303;51.960;8.372;2023-07-29T01:24:00;23.30;99.90
20288;DHT22;10303;51.960;8.372;2023-07-29T01:26:26;23.30;99.90
20288;DHT22;10303;51.960;8.372;2023-07-29T01:28:56;23.30;99.90
20288;DHT22;10303;51.960;8.372;2023-07-29T01:31:24;23.20;99.90
20288;DHT22;10303;51.960;8.372;2023-07-29T01:33:59;23.20;99.90
20288;DHT22;10303;51.960;8.372;2023-07-29T01:36:34;23.30;99.90
20288;DHT22;10303;51.960;8.372;2023-07-29T01:39:05;23.20;99.90
20288;DHT22;10303;51.960;8.372;2023-07-29T01:41:31;23.30;99.90
20288;DHT22;10303;51.960;8.372;2023-07-29T01:43:59;23.20;99.90
20288;DHT22;10303;51.960;8.372;2023-07-29T01:46:26;23.30;99.90
20288;DHT22;10303;51.960;8.372;2023-07-29T01:48:52;23.30;99.90
20288;DHT22;10303;51.960;8.372;2023-07-29T01:51:18;23.30;99.90
20288;DHT22;10303;51.960;8.372;2023-07-29T01:53:44;23.20;99.90
20288;DHT22;10303;51.960;8.372;2023-07-29T01:56:10;23.20;99.90
20288;DHT22;10303;51.960;8.372;2023-07-29T01:58:40;23.20;99.90
20288;DHT22;10303;51.960;8.372;2023-07-29T02:01:06;23.20;99.90
20288;DHT22;10303;51.960;8.372;2023-07-29T02:03:32;23.20;99.90
20288;DHT22;10303;51.960;8.372;2023-07-29T02:05:58;23.20;99.90
20288;DHT22;10303;51.960;8.372;2023-07-29T02:08:24;23.20;99.90
20288;DHT22;10303;51.960;8.372;2023-07-29T02:10:50;23.20;99.90
20288;DHT22;10303;51.960;8.372;2023-07-29T02:13:16;23.20;99.90
20288;DHT22;10303;51.960;8.372;2023-07-29T02:15:42;23.10;99.90
20288;DHT22;10303;51.960;8.372;2023-07-29T02:18:08;23.10;99.90
20288;DHT22;10303;51.960;8.372;2023-07-29T02:20:34;23.10;99.90
20288;DHT22;10303;51.960;8.372;2023-07-29T02:23:00;23.00;99.90
20288;DHT22;10303;51.960;8.372;2023-07-29T02:25:27;23.00;99.90
20288;DHT22;10303;51.960;8.372;2023-07-29T02:27:53;23.00;99.90
20288;DHT22;10303;51.960;8.372;2023-07-29T02:30:20;23.00;99.90
20288;DHT22;10303;51.960;8.372;2023-07-29T02:32:47;23.00;99.90
20288;DHT22;10303;51.960;8.372;2023-07-29T02:35:13;23.00;99.90
20288;DHT22;10303;51.960;8.372;2023-07-29T02:37:39;22.90;99.90
20288;DHT22;10303;51.960;8.372;2023-07-29T02:40:05;22.90;99.90
20288;DHT22;10303;51.960;8.372;2023-07-29T02:42:31;22.90;99.90
20288;DHT22;10303;51.960;8.372;2023-07-29T02:44:57;22.90;99.90
20288;DHT22;10303;51.960;8.372;2023-07-29T02:47:24;22.90;99.90
20288;DHT22;10303;51.960;8.372;2023-07-29T02:49:50;22.90;99.90
20288;DHT22;10303;51.960;8.372;2023-07-29T02:52:16;22.90;99.90
20288;DHT22;10303;51.960;8.372;2023-07-29T02:54:42;22.90;99.90
20288;DHT22;10303;51.960;8.372;2023-07-29T02:57:08;22.90;99.90
20288;DHT22;10303;51.960;8.372;2023-07-29T02:59:34;22.90;99.90
20288;DHT22;10303;51.960;8.372;2023-07-29T03:02:01;22.80;99.90
20288;DHT22;10303;51.960;8.372;2023-07-29T03:04:27;22.90;99.90
20288;DHT22;10303;51.960;8.372;2023-07-29T03:06:53;22.90;99.90
20288;DHT22;10303;51.960;8.372;2023-07-29T03:09:19;22.90;99.90
20288;DHT22;10303;51.960;8.372;2023-07-29T03:11:45;22.90;99.90
20288;DHT22;10303;51.960;8.372;2023-07-29T03:14:11;22.80;99.90
20288;DHT22;10303;51.960;8.372;2023-07-29T03:16:38;22.80;99.90
20288;DHT22;10303;51.960;8.372;2023-07-29T03:19:04;22.80;99.90
20288;DHT22;10303;51.960;8.372;2023-07-29T03:21:32;22.80;99.90
20288;DHT22;10303;51.960;8.372;2023-07-29T03:23:58;22.80;99.90
20288;DHT22;10303;51.960;8.372;2023-07-29T03:26:24;22.80;99.90
20288;DHT22;10303;51.960;8.372;2023-07-29T03:28:50;22.80;99.90
20288;DHT22;10303;51.960;8.372;2023-07-29T03:31:16;22.80;99.90
20288;DHT22;10303;51.960;8.372;2023-07-29T03:33:43;22.80;99.90
20288;DHT22;10303;51.960;8.372;2023-07-29T03:36:09;22.80;99.90
20288;DHT22;10303;51.960;8.372;2023-07-29T03:38:35;22.80;99.90
20288;DHT22;10303;51.960;8.372;2023-07-29T03:41:09;22.80;99.90
20288;DHT22;10303;51.960;8.372;2023-07-29T03:43:35;22.80;99.90
20288;DHT22;10303;51.960;8.372;2023-07-29T03:46:02;22.80;99.90
20288;DHT22;10303;51.960;8.372;2023-07-29T03:48:28;22.80;99.90
20288;DHT22;10303;51.960;8.372;2023-07-29T03:50:54;22.80;99.90
20288;DHT22;10303;51.960;8.372;2023-07-29T03:53:20;22.80;99.90
20288;DHT22;10303;51.960;8.372;2023-07-29T03:55:46;22.80;99.90
20288;DHT22;10303;51.960;8.372;2023-07-29T03:58:12;22.80;99.90
20288;DHT22;10303;51.960;8.372;2023-07-29T04:00:38;22.80;99.90
20288;DHT22;10303;51.960;8.372;2023-07-29T04:03:05;22.80;99.90
20288;DHT22;10303;51.960;8.372;2023-07-29T04:05:32;22.80;99.90
20288;DHT22;10303;51.960;8.372;2023-07-29T04:07:58;22.80;99.90
20288;DHT22;10303;51.960;8.372;2023-07-29T04:10:24;22.90;99.90
20288;DHT22;10303;51.960;8.372;2023-07-29T04:12:50;22.90;99.90
20288;DHT22;10303;51.960;8.372;2023-07-29T04:15:17;22.90;99.90
20288;DHT22;10303;51.960;8.372;2023-07-29T04:17:43;22.90;99.90
20288;DHT22;10303;51.960;8.372;2023-07-29T04:20:10;22.80;99.90
20288;DHT22;10303;51.960;8.372;2023-07-29T04:22:37;22.90;99.90
20288;DHT22;10303;51.960;8.372;2023-07-29T04:25:03;22.90;99.90
20288;DHT22;10303;51.960;8.372;2023-07-29T04:27:30;22.90;99.90
20288;DHT22;10303;51.960;8.372;2023-07-29T04:29:56;22.90;99.90
20288;DHT22;10303;51.960;8.372;2023-07-29T04:32:22;22.90;99.90
20288;DHT22;10303;51.960;8.372;2023-07-29T04:34:48;22.90;99.90
20288;DHT22;10303;51.960;8.372;2023-07-29T04:37:14;23.00;99.90
20288;DHT22;10303;51.960;8.372;2023-07-29T04:39:40;22.90;99.90
20288;DHT22;10303;51.960;8.372;2023-07-29T04:42:06;23.00;99.90
20288;DHT22;10303;51.960;8.372;2023-07-29T04:44:33;23.00;99.90
20288;DHT22;10303;51.960;8.372;2023-07-29T04:47:02;23.00;99.90
20288;DHT22;10303;51.960;8.372;2023-07-29T04:49:28;23.00;99.90
20288;DHT22;10303;51.960;8.372;2023-07-29T04:51:54;23.00;99.90
20288;DHT22;10303;51.960;8.372;2023-07-29T04:54:20;23.00;99.90
20288;DHT22;10303;51.960;8.372;2023-07-29T04:56:47;23.00;99.90
20288;DHT22;10303;51.960;8.372;2023-07-29T04:59:13;23.00;99.90
20288;DHT22;10303;51.960;8.372;2023-07-29T05:01:39;23.00;99.90
20288;DHT22;10303;51.960;8.372;2023-07-29T05:04:09;23.00;99.90
20288;DHT22;10303;51.960;8.372;2023-07-29T05:06:35;23.10;99.90
20288;DHT22;10303;51.960;8.372;2023-07-29T05:09:16;23.10;99.90
20288;DHT22;10303;51.960;8.372;2023-07-29T05:11:49;23.10;99.90
20288;DHT22;10303;51.960;8.372;2023-07-29T05:14:17;23.10;99.90
20288;DHT22;10303;51.960;8.372;2023-07-29T05:16:44;23.10;99.90
20288;DHT22;10303;51.960;8.372;2023-07-29T05:19:11;23.10;99.90
20288;DHT22;10303;51.960;8.372;2023-07-29T05:21:38;23.20;99.90
20288;DHT22;10303;51.960;8.372;2023-07-29T05:24:05;23.20;99.90
20288;DHT22;10303;51.960;8.372;2023-07-29T05:26:31;23.20;99.90
20288;DHT22;10303;51.960;8.372;2023-07-29T05:28:58;23.20;99.90
20288;DHT22;10303;51.960;8.372;2023-07-29T05:31:24;23.20;99.90
20288;DHT22;10303;51.960;8.372;2023-07-29T05:33:50;23.30;99.90
20288;DHT22;10303;51.960;8.372;2023-07-29T05:36:18;23.30;99.90
20288;DHT22;10303;51.960;8.372;2023-07-29T05:38:44;23.30;99.90
20288;DHT22;10303;51.960;8.372;2023-07-29T05:41:10;23.30;99.90
20288;DHT22;10303;51.960;8.372;2023-07-29T05:43:37;23.40;99.90
20288;DHT22;10303;51.960;8.372;2023-07-29T05:46:03;23.40;99.90
20288;DHT22;10303;51.960;8.372;2023-07-29T05:48:30;23.40;99.90
20288;DHT22;10303;51.960;8.372;2023-07-29T05:50:56;23.40;99.90
20288;DHT22;10303;51.960;8.372;2023-07-29T05:53:22;23.50;99.90
20288;DHT22;10303;51.960;8.372;2023-07-29T05:55:48;23.50;99.90
20288;DHT22;10303;51.960;8.372;2023-07-29T05:58:15;23.50;99.90
20288;DHT22;10303;51.960;8.372;2023-07-29T06:00:41;23.60;99.90
20288;DHT22;10303;51.960;8.372;2023-07-29T06:03:08;23.60;99.90
20288;DHT22;10303;51.960;8.372;2023-07-29T06:05:34;23.60;99.90
20288;DHT22;10303;51.960;8.372;2023-07-29T06:08:00;23.60;99.90
20288;DHT22;10303;51.960;8.372;2023-07-29T06:10:26;23.60;99.90
20288;DHT22;10303;51.960;8.372;2023-07-29T06:12:52;23.60;99.90
20288;DHT22;10303;51.960;8.372;2023-07-29T06:15:18;23.60;99.90
20288;DHT22;10303;51.960;8.372;2023-07-29T06:17:47;23.60;99.90
20288;DHT22;10303;51.960;8.372;2023-07-29T06:20:13;23.70;99.90
20288;DHT22;10303;51.960;8.372;2023-07-29T06:22:40;23.70;99.90
20288;DHT22;10303;51.960;8.372;2023-07-29T06:25:08;23.60;99.90
20288;DHT22;10303;51.960;8.372;2023-07-29T06:27:35;23.60;99.90
20288;DHT22;10303;51.960;8.372;2023-07-29T06:30:02;23.70;99.90
20288;DHT22;10303;51.960;8.372;2023-07-29T06:32:29;23.60;99.90
20288;DHT22;10303;51.960;8.372;2023-07-29T06:34:57;23.70;99.90
20288;DHT22;10303;51.960;8.372;2023-07-29T06:37:24;23.70;99.90
20288;DHT22;10303;51.960;8.372;2023-07-29T06:39:52;23.70;99.90
20288;DHT22;10303;51.960;8.372;2023-07-29T06:42:24;23.70;99.90
20288;DHT22;10303;51.960;8.372;2023-07-29T06:44:50;23.70;99.90
20288;DHT22;10303;51.960;8.372;2023-07-29T06:47:16;23.80;99.90
20288;DHT22;10303;51.960;8.372;2023-07-29T06:49:42;23.80;99.90
20288;DHT22;10303;51.960;8.372;2023-07-29T06:52:08;23.90;99.90
20288;DHT22;10303;51.960;8.372;2023-07-29T06:54:34;23.90;99.90
20288;DHT22;10303;51.960;8.372;2023-07-29T06:57:00;23.90;99.90
20288;DHT22;10303;51.960;8.372;2023-07-29T06:59:26;24.00;99.90
20288;DHT22;10303;51.960;8.372;2023-07-29T07:01:52;24.00;99.90
20288;DHT22;10303;51.960;8.372;2023-07-29T07:04:18;24.00;99.90
20288;DHT22;10303;51.960;8.372;2023-07-29T07:06:44;23.90;99.90
20288;DHT22;10303;51.960;8.372;2023-07-29T07:09:10;23.90;99.90
20288;DHT22;10303;51.960;8.372;2023-07-29T07:11:36;23.80;99.90
20288;DHT22;10303;51.960;8.372;2023-07-29T07:14:02;23.80;99.90
20288;DHT22;10303;51.960;8.372;2023-07-29T07:16:28;23.60;99.90
20288;DHT22;10303;51.960;8.372;2023-07-29T07:18:57;23.60;99.90
20288;DHT22;10303;51.960;8.372;2023-07-29T07:21:23;23.60;99.90
20288;DHT22;10303;51.960;8.372;2023-07-29T07:23:50;23.40;99.90
20288;DHT22;10303;51.960;8.372;2023-07-29T07:26:16;23.40;99.90
20288;DHT22;10303;51.960;8.372;2023-07-29T07:28:42;23.40;99.90
20288;DHT22;10303;51.960;8.372;2023-07-29T07:31:08;23.40;99.90
20288;DHT22;10303;51.960;8.372;2023-07-29T07:33:34;23.50;99.90
20288;DHT22;10303;51.960;8.372;2023-07-29T07:36:00;23.50;99.90
20288;DHT22;10303;51.960;8.372;2023-07-29T07:38:26;23.50;99.90
20288;DHT22;10303;51.960;8.372;2023-07-29T07:40:54;23.50;99.90
20288;DHT22;10303;51.960;8.372;2023-07-29T07:43:21;23.50;99.90
20288;DHT22;10303;51.960;8.372;2023-07-29T07:45:48;23.60;99.90
20288;DHT22;10303;51.960;8.372;2023-07-29T07:48:14;23.60;99.90
20288;DHT22;10303;51.960;8.372;2023-07-29T07:50:42;23.60;99.90
20288;DHT22;10303;51.960;8.372;2023-07-29T07:53:09;23.60;99.90
20288;DHT22;10303;51.960;8.372;2023-07-29T07:55:34;23.70;99.90
20288;DHT22;10303;51.960;8.372;2023-07-29T07:58:00;23.70;99.90
20288;DHT22;10303;51.960;8.372;2023-07-29T08:00:26;23.70;99.90
20288;DHT22;10303;51.960;8.372;2023-07-29T08:02:52;23.80;99.90
20288;DHT22;10303;51.960;8.372;2023-07-29T08:05:19;23.80;99.90
20288;DHT22;10303;51.960;8.372;2023-07-29T08:07:45;23.70;99.90
20288;DHT22;10303;51.960;8.372;2023-07-29T08:10:11;23.80;99.90
20288;DHT22;10303;51.960;8.372;2023-07-29T08:12:37;23.80;99.90
20288;DHT22;10303;51.960;8.372;2023-07-29T08:15:03;23.80;99.90
20288;DHT22;10303;51.960;8.372;2023-07-29T08:17:29;23.90;99.90
20288;DHT22;10303;51.960;8.372;2023-07-29T08:19:55;23.90;99.90
20288;DHT22;10303;51.960;8.372;2023-07-29T08:22:21;23.90;99.90
20288;DHT22;10303;51.960;8.372;2023-07-29T08:24:47;23.90;99.90
20288;DHT22;10303;51.960;8.372;2023-07-29T08:27:13;23.90;99.90
20288;DHT22;10303;51.960;8.372;2023-07-29T08:29:39;23.80;99.90
20288;DHT22;10303;51.960;8.372;2023-07-29T08:32:05;23.60;99.90
20288;DHT22;10303;51.960;8.372;2023-07-29T08:34:31;23.50;99.90
20288;DHT22;10303;51.960;8.372;2023-07-29T08:36:57;23.60;99.90
20288;DHT22;10303;51.960;8.372;2023-07-29T08:39:24;23.60;99.90
20288;DHT22;10303;51.960;8.372;2023-07-29T08:44:33;23.70;99.90
20288;DHT22;10303;51.960;8.372;2023-07-29T08:47:02;23.70;99.90
20288;DHT22;10303;51.960;8.372;2023-07-29T08:49:30;23.60;99.90
20288;DHT22;10303;51.960;8.372;2023-07-29T08:51:58;23.50;99.90
20288;DHT22;10303;51.960;8.372;2023-07-29T08:54:25;23.60;99.90
20288;DHT22;10303;51.960;8.372;2023-07-29T08:56:52;23.60;99.90
20288;DHT22;10303;51.960;8.372;2023-07-29T08:59:20;23.80;99.90
20288;DHT22;10303;51.960;8.372;2023-07-29T09:01:47;23.80;99.90
20288;DHT22;10303;51.960;8.372;2023-07-29T09:04:13;24.00;99.90
20288;DHT22;10303;51.960;8.372;2023-07-29T09:06:40;24.00;99.90
20288;DHT22;10303;51.960;8.372;2023-07-29T09:09:08;23.70;99.90
20288;DHT22;10303;51.960;8.372;2023-07-29T09:11:35;24.00;99.90
20288;DHT22;10303;51.960;8.372;2023-07-29T09:14:02;24.00;99.90
20288;DHT22;10303;51.960;8.372;2023-07-29T09:16:28;24.20;99.90
20288;DHT22;10303;51.960;8.372;2023-07-29T09:18:54;24.30;99.90
20288;DHT22;10303;51.960;8.372;2023-07-29T09:21:24;24.30;99.90
20288;DHT22;10303;51.960;8.372;2023-07-29T09:23:52;24.30;99.90
20288;DHT22;10303;51.960;8.372;2023-07-29T09:26:28;24.30;99.90
20288;DHT22;10303;51.960;8.372;2023-07-29T09:28:58;24.50;99.90
20288;DHT22;10303;51.960;8.372;2023-07-29T09:31:27;24.60;99.90
20288;DHT22;10303;51.960;8.372;2023-07-29T09:34:03;24.80;99.90
20288;DHT22;10303;51.960;8.372;2023-07-29T09:36:33;25.00;99.90
20288;DHT22;10303;51.960;8.372;2023-07-29T09:39:00;25.10;99.90
20288;DHT22;10303;51.960;8.372;2023-07-29T09:41:28;25.30;99.90
20288;DHT22;10303;51.960;8.372;2023-07-29T09:44:00;25.40;99.90
20288;DHT22;10303;51.960;8.372;2023-07-29T09:46:36;25.50;99.90
20288;DHT22;10303;51.960;8.372;2023-07-29T09:49:04;25.60;99.90
20288;DHT22;10303;51.960;8.372;2023-07-29T09:51:31;25.70;99.90
20288;DHT22;10303;51.960;8.372;2023-07-29T09:53:57;25.60;99.90
20288;DHT22;10303;51.960;8.372;2023-07-29T09:56:28;25.40;99.90
20288;DHT22;10303;51.960;8.372;2023-07-29T09:58:58;25.30;99.90
20288;DHT22;10303;51.960;8.372;2023-07-29T10:01:25;25.40;99.90
20288;DHT22;10303;51.960;8.372;2023-07-29T10:03:53;25.50;99.90
20288;DHT22;10303;51.960;8.372;2023-07-29T10:06:22;25.60;99.90
20288;DHT22;10303;51.960;8.372;2023-07-29T10:08:49;25.70;99.90
20288;DHT22;10303;51.960;8.372;2023-07-29T10:11:18;25.80;99.90
20288;DHT22;10303;51.960;8.372;2023-07-29T10:13:46;25.90;99.90
20288;DHT22;10303;51.960;8.372;2023-07-29T10:16:14;25.90;99.90
20288;DHT22;10303;51.960;8.372;2023-07-29T10:18:40;26.00;99.90
20288;DHT22;10303;51.960;8.372;2023-07-29T10:21:08;26.10;99.90
20288;DHT22;10303;51.960;8.372;2023-07-29T10:23:47;26.10;99.90
20288;DHT22;10303;51.960;8.372;2023-07-29T10:26:20;26.00;99.90
20288;DHT22;10303;51.960;8.372;2023-07-29T10:28:47;26.10;99.90
20288;DHT22;10303;51.960;8.372;2023-07-29T10:31:17;26.20;99.90
20288;DHT22;10303;51.960;8.372;2023-07-29T10:33:44;26.30;99.90
20288;DHT22;10303;51.960;8.372;2023-07-29T10:36:11;26.40;99.90
20288;DHT22;10303;51.960;8.372;2023-07-29T10:38:40;26.10;99.90
20288;DHT22;10303;51.960;8.372;2023-07-29T10:41:07;26.10;99.90
20288;DHT22;10303;51.960;8.372;2023-07-29T10:43:35;26.30;99.90
20288;DHT22;10303;51.960;8.372;2023-07-29T10:46:16;26.50;99.90
20288;DHT22;10303;51.960;8.372;2023-07-29T10:48:57;26.70;99.90
20288;DHT22;10303;51.960;8.372;2023-07-29T10:51:28;26.70;99.90
20288;DHT22;10303;51.960;8.372;2023-07-29T10:56:48;26.90;99.90
20288;DHT22;10303;51.960;8.372;2023-07-29T11:02:17;27.20;99.90
20288;DHT22;10303;51.960;8.372;2023-07-29T11:04:50;27.30;99.90
20288;DHT22;10303;51.960;8.372;2023-07-29T11:17:57;27.60;99.90
20288;DHT22;10303;51.960;8.372;2023-07-29T11:20:28;27.70;99.90
20288;DHT22;10303;51.960;8.372;2023-07-29T11:23:00;27.70;99.90
20288;DHT22;10303;51.960;8.372;2023-07-29T11:25:29;27.70;99.90
20288;DHT22;10303;51.960;8.372;2023-07-29T11:27:58;27.70;99.70
20288;DHT22;10303;51.960;8.372;2023-07-29T11:30:25;27.50;99.90
20288;DHT22;10303;51.960;8.372;2023-07-29T11:32:59;27.70;99.90
20288;DHT22;10303;51.960;8.372;2023-07-29T11:35:25;27.80;99.90
20288;DHT22;10303;51.960;8.372;2023-07-29T11:37:54;27.90;99.30
20288;DHT22;10303;51.960;8.372;2023-07-29T11:40:23;28.00;99.30
20288;DHT22;10303;51.960;8.372;2023-07-29T11:42:52;28.00;99.90
20288;DHT22;10303;51.960;8.372;2023-07-29T11:45:20;27.80;97.90
20288;DHT22;10303;51.960;8.372;2023-07-29T11:47:47;27.90;98.40
20288;DHT22;10303;51.960;8.372;2023-07-29T11:50:14;28.00;97.30
20288;DHT22;10303;51.960;8.372;2023-07-29T11:52:42;28.00;97.80
20288;DHT22;10303;51.960;8.372;2023-07-29T11:55:12;28.00;98.40
20288;DHT22;10303;51.960;8.372;2023-07-29T11:57:41;27.90;97.50
20288;DHT22;10303;51.960;8.372;2023-07-29T12:00:09;27.70;97.00
20288;DHT22;10303;51.960;8.372;2023-07-29T12:02:39;27.90;98.00
20288;DHT22;10303;51.960;8.372;2023-07-29T12:05:08;27.90;98.60
20288;DHT22;10303;51.960;8.372;2023-07-29T12:07:36;28.00;99.50
20288;DHT22;10303;51.960;8.372;2023-07-29T12:10:04;28.10;99.10
20288;DHT22;10303;51.960;8.372;2023-07-29T12:12:31;28.10;98.40
20288;DHT22;10303;51.960;8.372;2023-07-29T12:14:58;28.10;99.20
20288;DHT22;10303;51.960;8.372;2023-07-29T12:17:24;28.10;99.20
20288;DHT22;10303;51.960;8.372;2023-07-29T12:19:54;28.00;98.60
20288;DHT22;10303;51.960;8.372;2023-07-29T12:22:21;28.00;98.80
20288;DHT22;10303;51.960;8.372;2023-07-29T12:24:51;28.00;98.60
20288;DHT22;10303;51.960;8.372;2023-07-29T12:27:21;28.10;98.70
20288;DHT22;10303;51.960;8.372;2023-07-29T12:29:51;28.00;96.60
20288;DHT22;10303;51.960;8.372;2023-07-29T12:32:18;28.00;97.40
20288;DHT22;10303;51.960;8.372;2023-07-29T12:34:44;28.00;98.10
20288;DHT22;10303;51.960;8.372;2023-07-29T12:37:10;28.00;97.60
20288;DHT22;10303;51.960;8.372;2023-07-29T12:39:40;27.90;98.00
20288;DHT22;10303;51.960;8.372;2023-07-29T12:42:08;27.80;97.60
20288;DHT22;10303;51.960;8.372;2023-07-29T12:44:35;27.70;97.50
20288;DHT22;10303;51.960;8.372;2023-07-29T12:47:04;27.60;97.80
20288;DHT22;10303;51.960;8.372;2023-07-29T12:49:31;27.60;97.90
20288;DHT22;10303;51.960;8.372;2023-07-29T12:51:58;27.50;98.30
20288;DHT22;10303;51.960;8.372;2023-07-29T12:54:25;27.50;98.90
20288;DHT22;10303;51.960;8.372;2023-07-29T12:56:51;27.50;99.30
20288;DHT22;10303;51.960;8.372;2023-07-29T12:59:17;27.60;99.90
20288;DHT22;10303;51.960;8.372;2023-07-29T13:01:44;27.60;99.90
20288;DHT22;10303;51.960;8.372;2023-07-29T13:04:10;27.70;99.90
20288;DHT22;10303;51.960;8.372;2023-07-29T13:06:36;27.70;99.50
20288;DHT22;10303;51.960;8.372;2023-07-29T13:09:03;27.80;99.90
20288;DHT22;10303;51.960;8.372;2023-07-29T13:11:29;27.80;99.00
20288;DHT22;10303;51.960;8.372;2023-07-29T13:13:55;28.00;99.90
20288;DHT22;10303;51.960;8.372;2023-07-29T13:16:21;28.10;99.90
20288;DHT22;10303;51.960;8.372;2023-07-29T13:18:47;28.10;98.30
20288;DHT22;10303;51.960;8.372;2023-07-29T13:21:13;28.10;98.40
20288;DHT22;10303;51.960;8.372;2023-07-29T13:23:39;28.10;99.10
20288;DHT22;10303;51.960;8.372;2023-07-29T13:26:05;28.30;99.00
20288;DHT22;10303;51.960;8.372;2023-07-29T13:28:31;28.30;97.90
20288;DHT22;10303;51.960;8.372;2023-07-29T13:30:57;28.50;98.60
20288;DHT22;10303;51.960;8.372;2023-07-29T13:33:23;28.60;97.60
20288;DHT22;10303;51.960;8.372;2023-07-29T13:35:49;28.50;94.30
20288;DHT22;10303;51.960;8.372;2023-07-29T13:38:16;28.50;95.50
20288;DHT22;10303;51.960;8.372;2023-07-29T13:40:42;28.20;94.70
20288;DHT22;10303;51.960;8.372;2023-07-29T13:43:08;28.20;95.40
20288;DHT22;10303;51.960;8.372;2023-07-29T13:45:34;28.20;95.70
20288;DHT22;10303;51.960;8.372;2023-07-29T13:48:01;28.30;95.80
20288;DHT22;10303;51.960;8.372;2023-07-29T13:50:27;28.30;96.10
20288;DHT22;10303;51.960;8.372;2023-07-29T13:52:53;28.30;95.70
20288;DHT22;10303;51.960;8.372;2023-07-29T13:55:19;28.30;95.70
20288;DHT22;10303;51.960;8.372;2023-07-29T13:57:45;28.30;96.80
20288;DHT22;10303;51.960;8.372;2023-07-29T14:00:11;28.40;96.60
20288;DHT22;10303;51.960;8.372;2023-07-29T14:02:38;28.40;97.10
20288;DHT22;10303;51.960;8.372;2023-07-29T14:05:04;28.40;95.70
20288;DHT22;10303;51.960;8.372;2023-07-29T14:07:32;28.30;95.90
20288;DHT22;10303;51.960;8.372;2023-07-29T14:09:58;28.30;95.50
20288;DHT22;10303;51.960;8.372;2023-07-29T14:12:25;28.30;95.90
20288;DHT22;10303;51.960;8.372;2023-07-29T14:14:51;28.30;97.20
20288;DHT22;10303;51.960;8.372;2023-07-29T14:17:17;28.30;96.10
20288;DHT22;10303;51.960;8.372;2023-07-29T14:19:43;28.40;96.50
20288;DHT22;10303;51.960;8.372;2023-07-29T14:22:09;28.30;96.30
20288;DHT22;10303;51.960;8.372;2023-07-29T14:24:35;28.40;95.10
20288;DHT22;10303;51.960;8.372;2023-07-29T14:27:01;28.30;95.60
20288;DHT22;10303;51.960;8.372;2023-07-29T14:29:29;28.30;95.40
20288;DHT22;10303;51.960;8.372;2023-07-29T14:31:55;28.30;94.80
20288;DHT22;10303;51.960;8.372;2023-07-29T14:34:22;28.30;94.70
20288;DHT22;10303;51.960;8.372;2023-07-29T14:36:48;28.30;94.30
20288;DHT22;10303;51.960;8.372;2023-07-29T14:39:15;28.20;94.30
20288;DHT22;10303;51.960;8.372;2023-07-29T14:41:41;28.20;94.50
20288;DHT22;10303;51.960;8.372;2023-07-29T14:44:07;28.10;94.70
20288;DHT22;10303;51.960;8.372;2023-07-29T14:46:34;28.00;94.80
20288;DHT22;10303;51.960;8.372;2023-07-29T14:49:00;27.90;95.10
20288;DHT22;10303;51.960;8.372;2023-07-29T14:51:27;27.80;95.40
20288;DHT22;10303;51.960;8.372;2023-07-29T14:53:53;27.70;95.00
20288;DHT22;10303;51.960;8.372;2023-07-29T14:56:20;27.70;95.30
20288;DHT22;10303;51.960;8.372;2023-07-29T14:58:46;27.60;95.50
20288;DHT22;10303;51.960;8.372;2023-07-29T15:01:15;27.50;95.00
20288;DHT22;10303;51.960;8.372;2023-07-29T15:03:42;27.30;95.50
20288;DHT22;10303;51.960;8.372;2023-07-29T15:06:09;27.20;95.60
20288;DHT22;10303;51.960;8.372;2023-07-29T15:08:35;27.10;95.60
20288;DHT22;10303;51.960;8.372;2023-07-29T15:11:02;27.00;95.70
20288;DHT22;10303;51.960;8.372;2023-07-29T15:13:28;26.90;96.00
20288;DHT22;10303;51.960;8.372;2023-07-29T15:15:55;26.90;96.30
20288;DHT22;10303;51.960;8.372;2023-07-29T15:18:21;26.40;97.60
20288;DHT22;10303;51.960;8.372;2023-07-29T15:20:48;26.20;98.00
20288;DHT22;10303;51.960;8.372;2023-07-29T15:23:14;26.10;98.20
20288;DHT22;10303;51.960;8.372;2023-07-29T15:25:41;25.90;99.90
20288;DHT22;10303;51.960;8.372;2023-07-29T15:28:07;25.30;99.90
20288;DHT22;10303;51.960;8.372;2023-07-29T15:30:36;25.10;99.90
20288;DHT22;10303;51.960;8.372;2023-07-29T15:33:03;25.00;99.90
20288;DHT22;10303;51.960;8.372;2023-07-29T15:35:37;24.80;99.90
20288;DHT22;10303;51.960;8.372;2023-07-29T15:38:07;24.60;99.90
20288;DHT22;10303;51.960;8.372;2023-07-29T15:40:33;24.50;99.90
20288;DHT22;10303;51.960;8.372;2023-07-29T15:43:00;24.40;99.90
20288;DHT22;10303;51.960;8.372;2023-07-29T15:45:29;24.20;99.90
20288;DHT22;10303;51.960;8.372;2023-07-29T15:47:56;24.00;99.90
20288;DHT22;10303;51.960;8.372;2023-07-29T15:50:22;23.90;99.90
20288;DHT22;10303;51.960;8.372;2023-07-29T15:52:49;23.70;99.90